Latest Weather Observations for Davey Gorge (PWS)

IDT60801

Issued at 12:01 pm EST Friday 23 April 2021 (issued every 10 minutes, with the page automatically refreshed every 10 minutes)

About weather observations | Map of weather stations | Latest weather observations for TAS | Other Formats
Station Details ID: 250107 Name: TAS PARKS WILDLIFE PORTABLE D Lat: -43.15 Lon: 145.95 Height: 50.0 m

Portable automatic weather stations (PAWS) are operated by other organisations, such as Fire and Emergency Services, and are included here by agreement. Portable stations may be deployed to a location for a short period and their location may be subject to change without notice. Wind observations from these stations are provided from heights of either three (3) or ten (10) metres above ground level (AGL).

Data from the previous 72 hours. | See also: Recent months for locations in Tasmania
Date/Time
EST
Temp
°C
App
Temp
°C
Dew
Point
°C
Rel
Hum
%
Delta-T
°C
Wind Press
QNH
hPa
Press
MSL
hPa
Rain since
9am
mm
Dir  Spd
km/h
Gust
km/h
Spd
kts
Gust
kts
23/11:30am 11.4 7.0 5.0 65 2.9 W 17 22 9 12 1000.3 - 0.8
23/11:00am 10.8 6.7 6.1 73 2.2 W 17 20 9 11 1000.3 - 0.8
23/10:30am 12.0 6.2 4.6 60 3.4 W 24 43 13 23 1000.0 - 0.0
23/10:00am 11.7 8.6 5.6 66 2.8 W 11 17 6 9 999.8 - 0.0
23/09:30am 10.8 5.9 4.9 67 2.7 W 20 35 11 19 - - 0.0
23/09:00am 10.0 5.6 4.9 70 2.3 WNW 17 28 9 15 - - 27.0
23/08:30am 9.4 5.0 4.5 71 2.2 W 17 20 9 11 999.7 - 26.8
23/08:00am 9.7 7.3 5.3 74 2.0 W 7 19 4 10 999.4 - 26.2
23/07:30am 10.1 5.8 5.2 71 2.2 W 17 26 9 14 998.9 - 26.0
23/07:00am 10.0 5.0 4.5 68 2.5 W 20 35 11 19 998.5 - 26.0
23/06:30am 9.7 2.5 3.1 63 2.8 WSW 30 37 16 20 998.3 - 26.0
23/06:00am 10.1 6.9 5.3 72 2.2 WSW 11 15 6 8 998.0 - 25.4
23/05:30am 10.3 3.7 4.3 66 2.7 W 28 43 15 23 997.7 - 25.4
23/05:00am 9.3 5.0 5.1 75 1.9 W 17 28 9 15 997.2 - 25.4
23/04:30am 9.3 5.5 5.8 79 1.6 W 15 19 8 10 997.0 - 24.6
23/04:00am 9.9 3.0 4.6 69 2.4 W 30 37 16 20 996.4 - 23.8
23/03:30am 9.6 3.6 5.4 75 1.9 W 26 33 14 18 996.4 - 23.8
23/03:00am 9.7 2.3 4.2 68 2.4 W 32 54 17 29 996.2 - 23.2
23/02:30am 9.8 2.3 4.5 69 2.4 W 33 43 18 23 996.0 - 23.0
23/02:00am 10.0 2.0 5.5 73 2.1 W 37 52 20 28 995.8 - 22.6
23/01:30am 10.4 5.5 5.3 70 2.3 W 20 26 11 14 995.6 - 22.2
23/01:00am 9.5 2.3 5.1 74 2.0 W 32 43 17 23 995.4 - 22.2
23/12:30am 9.5 4.1 6.2 80 1.5 W 24 37 13 20 995.2 - 21.0
23/12:00am 10.6 5.1 5.8 72 2.2 NW 24 32 13 17 994.7 - 18.4
 
Date/Time
EST
Temp
°C
App
Temp
°C
Dew
Point
°C
Rel
Hum
%
Delta-T
°C
Wind Press
QNH
hPa
Press
MSL
hPa
Rain since
9am
mm
Dir  Spd
km/h
Gust
km/h
Spd
kts
Gust
kts
22/11:30pm 10.0 5.1 5.2 72 2.2 WNW 20 33 11 18 994.9 - 18.4
22/11:00pm 10.8 6.5 5.4 69 2.5 W 17 22 9 12 995.0 - 17.4
22/10:30pm 10.5 5.8 5.0 69 2.5 W 19 26 10 14 994.9 - 17.2
22/10:00pm 10.3 6.0 6.9 79 1.6 WNW 19 33 10 18 994.9 - 16.8
22/09:30pm 10.0 5.6 6.6 79 1.6 W 19 22 10 12 995.0 - 15.0
22/09:00pm 10.0 5.4 6.4 78 1.7 W 20 32 11 17 995.0 - 12.8
22/08:30pm 10.6 5.3 5.1 69 2.5 WNW 22 30 12 16 994.6 - 10.4
22/08:00pm 10.3 5.4 5.0 69 2.4 WNW 20 35 11 19 994.2 - 10.0
22/07:30pm 10.6 6.8 5.7 72 2.3 WNW 15 24 8 13 993.9 - 9.4
22/07:00pm 9.9 4.1 6.3 78 1.7 W 26 39 14 21 994.4 - 9.2
22/06:30pm 11.1 7.4 4.5 64 3.0 WNW 13 22 7 12 993.4 - 7.4
22/06:00pm 11.1 7.0 4.6 64 2.9 W 15 33 8 18 993.4 - 7.4
22/05:30pm 11.1 6.4 5.9 70 2.4 W 20 26 11 14 992.9 - 7.4
22/05:00pm 11.2 7.9 6.2 71 2.3 W 13 17 7 9 992.9 - 7.0
22/04:30pm 10.7 6.2 6.9 77 1.8 W 20 28 11 15 992.6 - 7.0
22/04:00pm 10.5 3.6 7.1 79 1.6 W 33 50 18 27 992.6 - 6.6
22/03:30pm 10.7 6.4 6.8 77 1.8 W 19 30 10 16 992.0 - 6.0
22/03:00pm 11.8 8.3 7.4 74 2.1 W 15 20 8 11 991.4 - 5.4
22/02:30pm 11.6 7.1 7.0 73 2.2 W 20 33 11 18 991.5 - 5.4
22/02:00pm 12.1 6.1 7.0 71 2.5 W 28 44 15 24 991.0 - 5.2
22/01:30pm 11.7 4.1 7.4 75 2.1 W 37 48 20 26 991.4 - 5.2
22/01:00pm 12.7 8.5 8.1 73 2.3 WNW 20 37 11 20 990.6 - 5.0
22/12:30pm 11.6 7.5 7.9 78 1.8 W 19 33 10 18 990.8 - 4.8
22/12:00pm 11.6 6.1 9.0 84 1.3 WNW 28 39 15 21 991.1 - 3.4
22/11:30am 11.8 7.7 8.6 81 1.6 NW 20 28 11 15 990.6 - 2.0
22/11:00am 11.8 6.3 7.7 76 2.0 NW 26 37 14 20 990.4 - 1.2
22/10:30am 11.1 4.4 7.3 77 1.8 NW 32 41 17 22 991.3 - 1.2
22/10:00am 11.0 4.6 6.8 75 2.0 NW 30 37 16 20 991.4 - 0.4
22/09:30am 10.6 6.2 7.5 81 1.5 NW 20 32 11 17 991.7 - 0.2
22/09:00am 10.6 6.2 7.4 80 1.5 NW 20 30 11 16 991.9 - 12.4
22/08:30am 10.2 5.7 6.8 79 1.6 NW 20 26 11 14 992.0 - 12.2
22/08:00am 10.2 5.9 7.0 80 1.5 NNW 19 26 10 14 991.9 - 11.6
22/07:30am 10.0 4.5 6.0 76 1.8 NW 24 39 13 21 992.1 - 11.0
22/07:00am 10.3 5.3 4.6 68 2.6 NW 20 26 11 14 991.9 - 10.2
22/06:30am 10.5 5.1 6.3 75 2.0 NW 24 35 13 19 992.0 - 10.0
22/06:00am 10.8 5.7 6.2 73 2.2 NW 22 32 12 17 992.0 - 9.6
22/05:30am 11.3 6.0 4.8 64 3.0 NNW 22 30 12 16 991.6 - 9.6
22/05:00am 11.4 6.7 5.0 65 2.9 NW 19 24 10 13 991.9 - 9.6
22/04:30am 11.3 5.5 4.2 61 3.2 WNW 24 30 13 16 991.9 - 9.6
22/04:00am 10.5 7.6 6.7 77 1.8 NW 11 17 6 9 991.9 - 9.6
22/03:30am 10.9 5.4 6.1 72 2.2 NW 24 33 13 18 992.1 - 9.4
22/03:00am 11.1 7.2 5.2 67 2.7 NNW 15 19 8 10 992.3 - 9.4
22/02:30am 10.9 7.5 6.1 72 2.2 NW 13 20 7 11 992.7 - 9.4
22/02:00am 11.0 6.3 6.2 72 2.2 NW 20 28 11 15 993.1 - 9.4
22/01:30am 10.9 7.7 6.7 75 2.0 NW 13 19 7 10 993.4 - 9.4
22/01:00am 10.9 6.5 6.4 74 2.1 NW 19 24 10 13 993.5 - 9.4
22/12:30am 11.0 6.0 6.3 73 2.2 NW 22 32 12 17 993.4 - 9.4
22/12:00am 10.6 7.1 8.8 89 0.9 NW 17 19 9 10 993.6 - 8.8
 
Date/Time
EST
Temp
°C
App
Temp
°C
Dew
Point
°C
Rel
Hum
%
Delta-T
°C
Wind Press
QNH
hPa
Press
MSL
hPa
Rain since
9am
mm
Dir  Spd
km/h
Gust
km/h
Spd
kts
Gust
kts
21/11:30pm 10.4 7.6 8.7 89 0.8 NW 13 19 7 10 993.6 - 7.0
21/11:00pm 10.7 7.9 8.7 87 1.0 WNW 13 24 7 13 994.1 - 5.8
21/10:30pm 10.8 6.8 9.0 89 0.9 NW 20 26 11 14 994.0 - 5.2
21/10:00pm 11.2 5.2 8.8 85 1.2 NNW 30 35 16 19 994.5 - 2.8
21/09:30pm 11.1 4.7 8.4 83 1.3 NW 32 43 17 23 994.2 - 1.6
21/09:00pm 11.4 4.6 7.9 79 1.7 NNW 33 39 18 21 994.8 - 0.6
21/08:30pm 11.3 3.7 7.7 78 1.7 NNW 37 50 20 27 995.2 - 0.6
21/08:00pm 11.1 4.8 7.6 79 1.7 NNW 30 37 16 20 995.4 - 0.4
21/07:30pm 11.0 5.1 7.7 80 1.6 NNW 28 37 15 20 995.8 - 0.4
21/07:00pm 11.3 4.9 7.0 75 2.1 NNW 30 43 16 23 996.0 - 0.4
21/06:30pm 11.3 4.2 6.3 71 2.4 NNW 33 43 18 23 996.3 - 0.4
21/06:00pm 11.1 4.9 6.1 71 2.3 NNW 28 35 15 19 996.2 - 0.4
21/05:30pm 11.0 5.9 5.9 71 2.4 N 22 32 12 17 996.6 - 0.4
21/05:00pm 10.9 4.9 5.4 69 2.5 NNW 26 35 14 19 997.0 - 0.4
21/04:30pm 10.6 3.4 6.1 74 2.1 NNW 33 41 18 22 997.3 - 0.4
21/04:00pm 10.8 4.6 6.1 73 2.2 NNW 28 41 15 22 997.9 - 0.2
21/03:30pm 11.2 4.9 5.6 68 2.6 N 28 37 15 20 997.8 - 0.2
21/03:00pm 11.1 5.6 5.7 69 2.5 NNW 24 35 13 19 998.4 - 0.2
21/02:30pm 10.7 4.8 6.0 73 2.2 NNW 26 32 14 17 998.9 - 0.2
21/02:00pm 11.2 4.8 5.2 66 2.8 NNW 28 35 15 19 999.3 - 0.2
21/01:30pm 10.6 5.7 5.3 70 2.4 NNW 20 30 11 16 999.7 - 0.0
21/01:00pm 10.8 6.0 4.9 67 2.7 N 19 28 10 15 1000.0 - 0.0
21/12:30pm 11.9 7.1 4.5 60 3.4 N 19 22 10 12 1000.5 - 0.0
21/12:00pm 10.7 5.3 4.7 66 2.7 NNW 22 26 12 14 1001.1 - 0.0
21/11:30am 11.1 5.3 4.4 63 3.0 NNW 24 37 13 20 1001.7 - 0.0
21/11:00am 11.2 8.1 3.8 60 3.3 N 9 15 5 8 1002.0 - 0.0
21/10:30am 9.7 6.8 4.9 72 2.2 NNE 9 19 5 10 1002.4 - 0.0
21/10:00am 7.6 3.5 4.3 79 1.4 NE 15 20 8 11 1002.9 - 0.0
21/09:30am 7.2 3.9 4.3 82 1.3 NE 11 15 6 8 1003.1 - 0.0
21/09:00am 6.9 3.6 4.7 86 1.0 NE 11 15 6 8 1003.5 - 2.6
21/08:30am 5.0 1.9 3.7 91 0.5 N 9 11 5 6 1003.9 - 2.6
21/08:00am 4.5 1.8 3.6 94 0.4 NNE 7 9 4 5 1003.9 - 2.6
21/07:30am 3.5 0.2 2.6 94 0.4 N 9 11 5 6 1004.0 - 2.6
21/07:00am 3.0 -0.3 2.3 95 0.3 N 9 9 5 5 1004.2 - 2.4
21/06:30am 3.2 0.3 2.6 96 0.2 N 7 9 4 5 1004.2 - 2.4
21/06:00am 2.9 -0.8 2.3 96 0.2 N 11 13 6 7 1004.1 - 2.4
21/05:30am 2.7 -0.7 2.1 96 0.2 N 9 11 5 6 1004.1 - 2.4
21/05:00am 3.2 -0.1 2.6 96 0.2 NNE 9 13 5 7 1004.1 - 2.4
21/04:30am 3.4 0.2 2.8 96 0.2 NNE 9 11 5 6 1004.1 - 2.4
21/04:00am 3.6 0.8 3.0 96 0.2 NNE 7 9 4 5 1003.9 - 2.4
21/03:30am 3.7 0.5 3.0 95 0.3 NNE 9 11 5 6 1004.1 - 2.4
21/03:00am 3.6 0.4 2.9 95 0.3 N 9 13 5 7 1004.5 - 2.4
21/02:30am 3.8 1.0 3.0 94 0.3 N 7 9 4 5 1004.6 - 2.4
21/02:00am 4.3 1.7 3.4 94 0.4 NNE 6 7 3 4 1004.9 - 2.4
21/01:30am 4.8 2.3 3.8 93 0.4 NNE 6 7 3 4 1004.9 - 2.4
21/01:00am 4.6 1.9 3.8 95 0.3 N 7 9 4 5 1004.8 - 2.4
21/12:30am 4.4 0.5 3.6 95 0.3 N 13 17 7 9 1004.8 - 2.2
21/12:00am 4.5 2.7 3.4 93 0.5 ENE 2 4 1 2 1005.2 - 1.6
 
Date/Time
EST
Temp
°C
App
Temp
°C
Dew
Point
°C
Rel
Hum
%
Delta-T
°C
Wind Press
QNH
hPa
Press
MSL
hPa
Rain since
9am
mm
Dir  Spd
km/h
Gust
km/h
Spd
kts
Gust
kts
20/11:30pm 4.4 2.5 3.1 91 0.5 SSE 2 7 1 4 1005.1 - 0.8
20/11:00pm 4.6 1.9 2.7 87 0.8 N 6 7 3 4 1004.8 - 0.8
20/10:30pm 5.4 2.5 2.8 83 1.1 NNW 7 7 4 4 1004.9 - 0.8
20/10:00pm 5.1 1.9 3.2 87 0.8 NW 9 11 5 6 1005.0 - 0.8
20/09:30pm 5.0 2.3 3.5 90 0.6 NNW 7 9 4 5 1004.8 - 0.8
20/09:00pm 5.3 2.8 3.5 88 0.8 E 6 9 3 5 1004.5 - 0.8
20/08:30pm 6.5 3.7 3.3 80 1.3 NW 7 9 4 5 1004.2 - 0.8
20/08:00pm 6.5 3.7 2.9 78 1.5 NNW 7 9 4 5 1003.9 - 0.8
20/07:30pm 6.6 4.1 3.8 82 1.2 W 6 7 3 4 1003.7 - 0.8
20/07:00pm 7.4 4.7 2.8 72 1.9 S 6 6 3 3 1003.5 - 0.8
20/06:30pm 7.8 5.5 2.7 70 2.1 S 4 13 2 7 1002.8 - 0.8
20/06:00pm 8.0 4.6 1.7 64 2.6 SSW 9 9 5 5 1002.3 - 0.8
20/05:30pm 9.0 4.1 2.2 62 2.9 SSW 17 20 9 11 1001.9 - 0.8
20/05:00pm 9.2 4.5 1.0 56 3.4 SSW 15 19 8 10 1001.6 - 0.8
20/04:30pm 8.9 6.2 2.9 66 2.6 S 6 9 3 5 1001.3 - 0.8
20/04:00pm 9.3 7.1 3.3 66 2.6 WNW 4 6 2 3 1001.0 - 0.8
20/03:30pm 9.5 7.2 2.5 61 3.0 S 4 7 2 4 1000.7 - 0.8
20/03:00pm 8.6 1.6 2.1 63 2.7 WSW 28 37 15 20 1000.3 - 0.8
20/02:30pm 12.1 6.6 0.8 46 4.7 S 19 24 10 13 999.3 - 0.8
20/02:00pm 11.5 4.6 0.2 45 4.6 SSW 26 28 14 15 999.2 - 0.8
20/01:30pm 11.4 5.2 1.9 52 4.1 SSW 24 28 13 15 998.7 - 0.8
20/01:00pm 11.3 6.4 2.2 53 3.9 S 17 20 9 11 998.7 - 0.8
20/12:30pm 10.2 5.9 3.5 63 2.9 SSE 15 20 8 11 998.8 - 0.8

Other formats

Comma delimited format used in spreadsheet applications
http://www.bom.gov.au/fwo/IDT60801/IDT60801.99148.axf

JavaScript Object Notation format (JSON) in row-major order
http://www.bom.gov.au/fwo/IDT60801/IDT60801.99148.json

Data quality

Most of these data are generated automatically and are frequently updated. Quality checks on data are not normally performed. It is possible for incorrect values to appear. Refer to information at About Latest Weather Observations and please check the disclaimer before using these data.